createdAt,value
2018-07-23T00:00:45.035Z,16.09
2018-07-23T00:03:48.704Z,16.04
2018-07-23T00:06:52.236Z,16.10
2018-07-23T00:09:55.882Z,16.11
2018-07-23T00:12:58.217Z,16.12
2018-07-23T00:16:04.413Z,16.15
2018-07-23T00:19:06.698Z,16.14
2018-07-23T00:22:10.110Z,16.18
2018-07-23T00:25:12.440Z,16.27
2018-07-23T00:28:14.796Z,16.30
2018-07-23T00:31:17.361Z,16.30
2018-07-23T00:34:20.048Z,16.26
2018-07-23T00:37:23.167Z,16.27
2018-07-23T00:40:25.695Z,16.26
2018-07-23T00:43:28.315Z,16.20
2018-07-23T00:46:30.772Z,16.13
2018-07-23T00:49:33.322Z,16.13
2018-07-23T00:52:36.302Z,16.13
2018-07-23T00:55:38.866Z,16.13
2018-07-23T00:58:41.393Z,16.07
2018-07-23T01:01:43.838Z,16.06
2018-07-23T01:04:46.211Z,16.04
2018-07-23T01:07:48.664Z,15.93
2018-07-23T01:10:51.142Z,15.88
2018-07-23T01:13:53.611Z,15.83
2018-07-23T01:16:56.380Z,15.83
2018-07-23T01:19:59.470Z,15.84
2018-07-23T01:23:01.985Z,15.85
2018-07-23T01:26:04.506Z,15.80
2018-07-23T01:29:06.930Z,15.71
2018-07-23T01:32:09.535Z,15.66
2018-07-23T01:35:11.999Z,15.61
2018-07-23T01:38:14.583Z,15.52
2018-07-23T01:41:16.876Z,15.43
2018-07-23T01:44:20.376Z,15.30
2018-07-23T01:47:23.774Z,15.18
2018-07-23T01:50:27.176Z,14.95
2018-07-23T01:53:29.611Z,14.85
2018-07-23T01:56:31.902Z,14.75
2018-07-23T01:59:34.235Z,14.71
2018-07-23T02:02:36.576Z,14.75
2018-07-23T02:05:38.849Z,14.79
2018-07-23T02:08:41.430Z,14.88
2018-07-23T02:11:43.878Z,14.90
2018-07-23T02:14:46.308Z,14.97
2018-07-23T02:17:48.864Z,14.99
2018-07-23T02:20:51.669Z,14.97
2018-07-23T02:23:54.147Z,14.95
2018-07-23T02:26:56.568Z,14.94
2018-07-23T02:29:59.038Z,14.97
2018-07-23T02:33:01.446Z,14.96
2018-07-23T02:36:04.858Z,14.94
2018-07-23T02:39:09.590Z,14.96
2018-07-23T02:42:12.062Z,15.03
2018-07-23T02:45:16.604Z,14.99
2018-07-23T02:48:19.062Z,15.00
2018-07-23T02:51:21.495Z,14.96
2018-07-23T02:54:23.921Z,14.93
2018-07-23T02:57:26.407Z,14.89
2018-07-23T03:00:28.945Z,14.88
2018-07-23T03:03:31.552Z,14.82
2018-07-23T03:06:34.100Z,14.77
2018-07-23T03:09:36.611Z,14.75
2018-07-23T03:12:40.934Z,14.70
2018-07-23T03:15:43.292Z,14.66
2018-07-23T03:18:45.661Z,14.63
2018-07-23T03:21:48.108Z,14.36
2018-07-23T03:24:50.520Z,14.18
2018-07-23T03:27:56.776Z,14.15
2018-07-23T03:30:59.200Z,14.18
2018-07-23T03:34:02.686Z,14.26
2018-07-23T03:37:06.089Z,14.30
2018-07-23T03:40:08.531Z,14.32
2018-07-23T03:43:11.031Z,14.36
2018-07-23T03:46:13.460Z,14.37
2018-07-23T03:49:15.967Z,14.41
2018-07-23T03:52:18.438Z,14.47
2018-07-23T03:55:21.053Z,14.48
2018-07-23T03:58:23.540Z,14.50
2018-07-23T04:01:25.955Z,14.56
2018-07-23T04:04:28.350Z,14.68
2018-07-23T04:07:30.643Z,14.80
2018-07-23T04:10:34.017Z,14.98
2018-07-23T04:13:36.488Z,15.08
2018-07-23T04:16:38.923Z,15.19
2018-07-23T04:19:41.347Z,15.27
2018-07-23T04:22:43.780Z,15.37
2018-07-23T04:25:46.098Z,15.49
2018-07-23T04:28:48.599Z,15.60
2018-07-23T04:31:51.203Z,15.88
2018-07-23T04:34:53.532Z,16.89
2018-07-23T04:37:56.928Z,17.75
2018-07-23T04:40:59.338Z,18.36
2018-07-23T04:44:01.814Z,18.83
2018-07-23T04:47:04.483Z,18.41
2018-07-23T04:50:09.063Z,17.66
2018-07-23T04:53:11.485Z,17.20
2018-07-23T04:56:14.938Z,17.08
2018-07-23T04:59:17.421Z,17.08
2018-07-23T05:02:19.887Z,17.23
2018-07-23T05:05:23.232Z,17.01
2018-07-23T05:08:25.475Z,17.32
2018-07-23T05:11:27.827Z,17.44
2018-07-23T05:14:30.221Z,17.71
2018-07-23T05:17:32.650Z,19.66
2018-07-23T05:20:36.071Z,21.47
2018-07-23T05:23:38.396Z,22.68
2018-07-23T05:26:40.855Z,23.75
2018-07-23T05:29:43.389Z,24.60
2018-07-23T05:32:45.758Z,25.27
2018-07-23T05:35:48.165Z,25.69
2018-07-23T05:38:50.744Z,26.24
2018-07-23T05:41:53.125Z,26.85
2018-07-23T05:44:55.469Z,27.36
2018-07-23T05:47:57.903Z,27.78
2018-07-23T05:51:00.456Z,28.13
2018-07-23T05:54:03.030Z,28.79
2018-07-23T05:57:05.807Z,28.98
2018-07-23T06:00:08.567Z,29.20
2018-07-23T06:04:14.123Z,29.47
2018-07-23T06:07:16.654Z,29.87
2018-07-23T06:10:19.341Z,29.84
2018-07-23T06:13:21.985Z,29.78
2018-07-23T06:16:24.202Z,29.16
2018-07-23T06:19:26.560Z,28.97
2018-07-23T06:22:28.967Z,28.32
2018-07-23T06:25:31.384Z,27.28
2018-07-23T06:28:33.932Z,27.29
2018-07-23T06:31:36.535Z,28.18
2018-07-23T06:34:39.067Z,29.29
2018-07-23T06:37:41.619Z,29.20
2018-07-23T06:40:44.268Z,29.11
2018-07-23T06:43:48.920Z,29.94
2018-07-23T06:46:51.125Z,30.32
2018-07-23T06:49:54.537Z,30.73
2018-07-23T06:52:56.856Z,30.67
2018-07-23T06:55:59.369Z,31.26
2018-07-23T06:59:01.743Z,30.38
2018-07-23T07:02:04.476Z,29.85
2018-07-23T07:05:07.184Z,29.85
2018-07-23T07:08:09.719Z,29.77
2018-07-23T07:11:12.261Z,30.66
2018-07-23T07:14:14.664Z,31.02
2018-07-23T07:17:17.237Z,30.50
2018-07-23T07:20:19.536Z,30.39
2018-07-23T07:23:21.896Z,31.64
2018-07-23T07:26:25.319Z,28.19
2018-07-23T07:29:27.601Z,27.99
2018-07-23T07:32:30.058Z,27.94
2018-07-23T07:35:32.418Z,27.76
2018-07-23T07:38:35.719Z,28.34
2018-07-23T07:41:38.512Z,27.98
2018-07-23T07:44:40.969Z,27.89
2018-07-23T07:47:43.581Z,29.51
2018-07-23T07:50:48.113Z,28.72
2018-07-23T07:53:50.640Z,28.79
2018-07-23T07:56:53.164Z,30.03
2018-07-23T07:59:55.841Z,28.13
2018-07-23T08:02:58.328Z,29.75
2018-07-23T08:06:00.852Z,29.50
2018-07-23T08:09:05.519Z,28.90
2018-07-23T08:12:08.112Z,28.29
2018-07-23T08:15:10.516Z,27.16
2018-07-23T08:18:12.762Z,27.53
2018-07-23T08:21:16.159Z,27.33
2018-07-23T08:24:18.517Z,26.06
2018-07-23T08:27:20.846Z,25.79
2018-07-23T08:30:23.240Z,26.37
2018-07-23T08:33:25.596Z,27.00
2018-07-23T08:36:28.130Z,27.38
2018-07-23T08:39:30.552Z,27.75
2018-07-23T08:42:34.318Z,27.04
2018-07-23T08:45:37.861Z,27.65
2018-07-23T08:48:40.389Z,27.27
2018-07-23T08:51:42.648Z,27.02
2018-07-23T08:54:45.541Z,26.96
2018-07-23T08:57:47.863Z,27.27
2018-07-23T09:00:50.212Z,27.82
2018-07-23T09:03:52.499Z,27.68
2018-07-23T09:06:55.805Z,28.07
2018-07-23T09:11:42.034Z,27.66
2018-07-23T09:14:44.783Z,27.86
2018-07-23T09:17:47.046Z,27.87
2018-07-23T09:20:49.318Z,28.16
2018-07-23T09:23:51.631Z,27.87
2018-07-23T09:26:54.346Z,27.95
2018-07-23T09:29:56.692Z,28.03
2018-07-23T09:32:59.068Z,27.10
2018-07-23T09:36:01.393Z,27.68
2018-07-23T09:39:06.976Z,27.76
2018-07-23T09:42:09.355Z,27.13
2018-07-23T09:45:12.386Z,28.05
2018-07-23T09:48:14.663Z,28.00
2018-07-23T09:51:16.944Z,27.65
2018-07-23T09:54:19.298Z,27.98
2018-07-23T09:57:21.682Z,27.98
2018-07-23T10:01:30.374Z,28.43
2018-07-23T10:04:32.661Z,27.74
2018-07-23T10:07:36.114Z,27.69
2018-07-23T10:14:22.597Z,28.30
2018-07-23T10:17:25.346Z,27.61
2018-07-23T10:20:27.887Z,28.17
2018-07-23T10:23:30.426Z,27.93
2018-07-23T10:26:33.138Z,27.89
2018-07-23T10:29:35.721Z,28.46
2018-07-23T10:32:38.436Z,28.34
2018-07-23T10:35:40.805Z,28.44
2018-07-23T10:38:43.117Z,28.53
2018-07-23T10:41:45.575Z,29.04
2018-07-23T10:44:47.758Z,28.29
2018-07-23T10:47:50.097Z,28.56
2018-07-23T10:50:52.384Z,28.99
2018-07-23T10:53:54.696Z,28.40
2018-07-23T10:56:56.988Z,28.05
2018-07-23T10:59:59.261Z,28.14
2018-07-23T11:03:01.555Z,29.06
2018-07-23T11:06:04.058Z,29.84
2018-07-23T11:09:07.263Z,28.60
2018-07-23T11:12:09.612Z,28.70
2018-07-23T11:15:11.932Z,28.39
2018-07-23T11:18:14.208Z,28.40
2018-07-23T11:21:16.458Z,29.74
2018-07-23T11:24:18.859Z,30.50
2018-07-23T11:27:21.168Z,31.14
2018-07-23T11:30:23.626Z,31.79
2018-07-23T11:33:25.835Z,30.77
2018-07-23T11:36:28.271Z,29.70
2018-07-23T11:39:30.622Z,29.85
2018-07-23T11:42:32.890Z,28.97
2018-07-23T11:45:35.162Z,28.71
2018-07-23T11:48:37.493Z,28.68
2018-07-23T11:51:39.714Z,29.07
2018-07-23T11:54:42.407Z,29.74
2018-07-23T11:57:45.689Z,30.42
2018-07-23T12:00:47.972Z,30.47
2018-07-23T12:03:50.290Z,29.84
2018-07-23T12:06:52.582Z,29.61
2018-07-23T12:09:54.958Z,30.09
2018-07-23T12:12:57.182Z,31.17
2018-07-23T12:15:59.394Z,30.67
2018-07-23T12:19:01.844Z,29.66
2018-07-23T12:22:04.081Z,30.08
2018-07-23T12:25:06.460Z,30.18
2018-07-23T12:28:08.785Z,30.18
2018-07-23T12:31:11.134Z,30.01
2018-07-23T12:34:13.397Z,29.65
2018-07-23T12:37:15.731Z,30.36
2018-07-23T12:40:18.090Z,31.05
2018-07-23T12:43:20.627Z,30.41
2018-07-23T12:46:23.019Z,30.50
2018-07-23T12:49:26.341Z,30.34
2018-07-23T12:52:29.454Z,31.18
2018-07-23T12:55:31.749Z,30.85
2018-07-23T12:58:34.416Z,29.44
2018-07-23T13:01:36.813Z,29.26
2018-07-23T13:04:40.085Z,29.05
2018-07-23T13:07:42.471Z,29.08
2018-07-23T13:10:44.740Z,28.77
2018-07-23T13:13:47.026Z,28.94
2018-07-23T13:16:49.464Z,29.34
2018-07-23T13:19:51.761Z,29.73
2018-07-23T13:22:54.078Z,29.01
2018-07-23T13:25:56.386Z,29.11
2018-07-23T13:28:58.734Z,29.20
2018-07-23T13:32:01.060Z,30.13
2018-07-23T13:35:03.653Z,30.04
2018-07-23T13:38:06.022Z,30.52
2018-07-23T13:41:08.422Z,30.85
2018-07-23T13:44:11.579Z,31.29
2018-07-23T13:47:13.854Z,30.86
2018-07-23T13:50:16.186Z,30.48
2018-07-23T13:53:18.585Z,32.35
2018-07-23T13:56:21.103Z,31.54
2018-07-23T13:59:23.480Z,31.39
2018-07-23T14:02:25.810Z,30.87
2018-07-23T14:05:28.087Z,30.50
2018-07-23T14:08:30.414Z,29.66
2018-07-23T14:11:32.768Z,30.19
2018-07-23T14:14:35.272Z,30.55
2018-07-23T14:17:37.674Z,31.24
2018-07-23T14:20:40.199Z,30.88
2018-07-23T14:23:42.556Z,30.72
2018-07-23T14:26:44.801Z,30.43
2018-07-23T14:29:47.037Z,29.95
2018-07-23T14:32:49.315Z,29.56
2018-07-23T14:35:51.639Z,30.58
2018-07-23T14:38:54.012Z,31.94
2018-07-23T14:41:56.304Z,31.53
2018-07-23T14:44:58.892Z,31.02
2018-07-23T14:48:01.254Z,31.63
2018-07-23T14:51:03.645Z,32.03
2018-07-23T14:54:06.214Z,31.95
2018-07-23T14:57:08.482Z,30.48
2018-07-23T15:00:10.905Z,30.20
2018-07-23T15:03:13.310Z,30.12
2018-07-23T15:06:15.633Z,29.71
2018-07-23T15:09:17.982Z,29.46
2018-07-23T15:12:20.214Z,29.35
2018-07-23T15:15:22.559Z,29.28
2018-07-23T15:18:24.880Z,29.10
2018-07-23T15:21:27.190Z,28.80
2018-07-23T15:24:29.474Z,28.91
2018-07-23T15:27:31.830Z,28.73
2018-07-23T15:30:34.072Z,29.10
2018-07-23T15:33:36.384Z,29.24
2018-07-23T15:36:38.770Z,29.12
2018-07-23T15:39:41.069Z,29.25
2018-07-23T15:42:43.385Z,29.08
2018-07-23T15:45:45.841Z,29.32
2018-07-23T15:48:47.922Z,29.13
2018-07-23T15:51:50.224Z,28.75
2018-07-23T15:54:52.602Z,28.79
2018-07-23T15:57:54.893Z,28.85
2018-07-23T16:00:57.221Z,29.11
2018-07-23T16:03:59.520Z,29.37
2018-07-23T16:07:01.801Z,29.45
2018-07-23T16:10:04.116Z,29.08
2018-07-23T16:13:06.407Z,29.24
2018-07-23T16:16:08.653Z,29.62
2018-07-23T16:19:10.932Z,30.38
2018-07-23T16:22:13.224Z,30.79
2018-07-23T16:25:15.473Z,30.48
2018-07-23T16:28:17.744Z,30.92
2018-07-23T16:31:20.115Z,30.98
2018-07-23T16:34:22.376Z,31.19
2018-07-23T16:37:24.695Z,31.43
2018-07-23T16:40:26.987Z,32.23
2018-07-23T16:43:29.353Z,32.40
2018-07-23T16:46:31.618Z,32.30
2018-07-23T16:49:33.986Z,31.23
2018-07-23T16:52:36.244Z,31.20
2018-07-23T16:55:38.587Z,31.08
2018-07-23T16:58:40.846Z,31.25
2018-07-23T17:01:45.784Z,31.62
2018-07-23T17:04:48.127Z,32.21
2018-07-23T17:07:50.455Z,32.37
2018-07-23T17:10:52.797Z,32.68
2018-07-23T17:13:55.030Z,32.69
2018-07-23T17:16:57.322Z,31.79
2018-07-23T17:19:59.669Z,32.88
2018-07-23T17:23:02.077Z,32.45
2018-07-23T17:26:04.445Z,33.04
2018-07-23T17:29:06.744Z,32.17
2018-07-23T17:32:09.359Z,32.38
2018-07-23T17:35:11.731Z,31.84
2018-07-23T17:38:14.031Z,31.07
2018-07-23T17:41:16.441Z,31.17
2018-07-23T17:44:19.017Z,30.76
2018-07-23T17:47:21.345Z,30.37
2018-07-23T17:50:23.581Z,30.70
2018-07-23T17:53:25.918Z,30.50
2018-07-23T17:56:28.240Z,29.93
2018-07-23T17:59:30.466Z,30.03
2018-07-23T18:02:32.777Z,29.62
2018-07-23T18:05:35.013Z,29.44
2018-07-23T18:08:37.359Z,29.41
2018-07-23T18:11:39.717Z,29.33
2018-07-23T18:14:42.140Z,29.62
2018-07-23T18:17:44.543Z,29.61
2018-07-23T18:20:47.025Z,29.65
2018-07-23T18:23:49.239Z,29.19
2018-07-23T18:26:51.484Z,28.99
2018-07-23T18:29:53.717Z,28.74
2018-07-23T18:32:55.930Z,28.52
2018-07-23T18:35:58.219Z,28.34
2018-07-23T18:39:00.603Z,28.27
2018-07-23T18:42:02.956Z,28.01
2018-07-23T18:45:05.730Z,27.91
2018-07-23T18:48:19.375Z,27.64
2018-07-23T18:51:31.099Z,27.41
2018-07-23T18:54:33.974Z,27.13
2018-07-23T18:57:36.166Z,26.82
2018-07-23T19:00:38.469Z,26.62
2018-07-23T19:03:40.862Z,26.26
2018-07-23T19:06:43.193Z,25.94
2018-07-23T19:09:45.666Z,25.71
2018-07-23T19:12:48.510Z,25.41
2018-07-23T19:15:50.881Z,25.09
2018-07-23T19:18:53.245Z,24.75
2018-07-23T19:21:55.548Z,24.38
2018-07-23T19:24:57.954Z,24.03
2018-07-23T19:28:00.282Z,23.70
2018-07-23T19:31:02.540Z,23.39
2018-07-23T19:34:05.289Z,23.12
2018-07-23T19:37:07.797Z,22.91
2018-07-23T19:40:10.003Z,22.74
2018-07-23T19:43:12.509Z,22.61
2018-07-23T19:46:14.862Z,22.39
2018-07-23T19:49:17.161Z,22.17
2018-07-23T19:52:19.563Z,21.96
2018-07-23T19:55:21.929Z,21.88
2018-07-23T19:58:24.243Z,21.76
2018-07-23T20:01:26.489Z,21.62
2018-07-23T20:04:28.731Z,21.52
2018-07-23T20:07:31.069Z,21.34
2018-07-23T20:10:33.361Z,21.23
2018-07-23T20:13:35.659Z,21.07
2018-07-23T20:16:38.018Z,20.95
2018-07-23T20:19:40.357Z,20.91
2018-07-23T20:22:42.616Z,20.92
2018-07-23T20:25:44.955Z,20.92
2018-07-23T20:28:47.384Z,20.90
2018-07-23T20:31:49.757Z,20.81
2018-07-23T20:34:51.985Z,20.73
2018-07-23T20:37:54.395Z,20.59
2018-07-23T20:40:56.578Z,20.54
2018-07-23T20:43:58.932Z,20.53
2018-07-23T20:47:01.266Z,20.45
2018-07-23T20:50:03.827Z,20.39
2018-07-23T20:53:06.153Z,20.38
2018-07-23T20:56:08.423Z,20.26
2018-07-23T20:59:10.669Z,20.19
2018-07-23T21:02:12.973Z,20.12
2018-07-23T21:05:15.244Z,20.18
2018-07-23T21:08:17.573Z,20.21
2018-07-23T21:11:19.844Z,20.13
2018-07-23T21:14:22.073Z,20.06
2018-07-23T21:17:24.357Z,19.99
2018-07-23T21:20:26.668Z,19.97
2018-07-23T21:23:28.905Z,19.86
2018-07-23T21:26:31.250Z,19.76
2018-07-23T21:29:33.537Z,19.67
2018-07-23T21:32:35.845Z,19.59
2018-07-23T21:35:38.193Z,19.36
2018-07-23T21:38:40.458Z,19.17
2018-07-23T21:41:42.732Z,19.05
2018-07-23T21:44:45.090Z,18.94
2018-07-23T21:51:53.118Z,18.81
2018-07-23T21:54:55.381Z,18.74
2018-07-23T21:57:57.667Z,18.51
2018-07-23T22:00:59.989Z,18.38
2018-07-23T22:04:02.293Z,18.32
2018-07-23T22:07:04.716Z,18.28
2018-07-23T22:10:07.973Z,18.33
2018-07-23T22:13:10.526Z,18.35
2018-07-23T22:16:12.795Z,18.33
2018-07-23T22:19:15.090Z,18.30
2018-07-23T22:22:17.457Z,18.25
2018-07-23T22:25:19.683Z,18.29
2018-07-23T22:28:22.131Z,18.33
2018-07-23T22:31:24.405Z,18.30
2018-07-23T22:34:26.695Z,18.30
2018-07-23T22:37:29.269Z,18.30
2018-07-23T22:40:31.706Z,18.26
2018-07-23T22:43:34.079Z,18.17
2018-07-23T22:46:36.545Z,18.10
2018-07-23T22:49:38.893Z,18.02
2018-07-23T22:52:41.246Z,17.94
2018-07-23T22:55:43.604Z,17.90
2018-07-23T22:58:45.892Z,17.85
2018-07-23T23:01:48.253Z,17.84
2018-07-23T23:04:50.516Z,17.84
2018-07-23T23:07:52.866Z,17.83
2018-07-23T23:10:55.193Z,17.79
2018-07-23T23:13:57.554Z,17.69
2018-07-23T23:16:59.841Z,17.55
2018-07-23T23:20:02.255Z,17.47
2018-07-23T23:23:04.501Z,17.36
2018-07-23T23:26:06.809Z,17.30
2018-07-23T23:29:09.118Z,17.23
2018-07-23T23:32:11.959Z,17.25
2018-07-23T23:35:20.927Z,17.23
2018-07-23T23:38:23.142Z,17.17
2018-07-23T23:41:25.538Z,17.11
2018-07-23T23:44:27.867Z,16.90
2018-07-23T23:47:30.281Z,16.74
2018-07-23T23:50:32.666Z,16.63
2018-07-23T23:53:35.098Z,16.67
2018-07-23T23:56:37.452Z,16.67
2018-07-23T23:59:40.144Z,16.78
